BBC Polonia — V2EZ6 — position and weather

sailwx.info

Track history (hours):
 
Tides and Currents Weather Stations Pressure Air Temp Water Temp Dewpoint Dewpoint Depression Visibility Wind Speed Wind Dir Waves Ship Positions

BBC Polonia

Last reported at 2017-Mar-14 15:27 UTC. Time now 2017-Mar-26 20:56 UTC.
Position N 49°49' W 003°26'.
Warning: this ship's position is 12 days out of date.

Length 123 m; draft 6.2 m.

Type: Cargo ship. MMSI: 305614000.

Date/timePositionNaut miles runAvg speedWind from/ knotsBaromVisibWave heightAir tempDewpointWater temp
2017-Mar-14 15:27N 49°49' W 003°26'1212.2
2017-Mar-14 14:29N 49°55' W 003°10'1212.4
2017-Mar-14 13:33N 49°60' W 002°54'2411.1
2017-Mar-14 11:24N 50°06' W 002°18'15 7.9
2017-Mar-14 09:31N 50°10' W 001°55'6 6.6
2017-Mar-14 08:33N 50°11' W 001°46'7 7.1
2017-Mar-14 07:33N 50°13' W 001°35'9 8.5
2017-Mar-14 06:33N 50°16' W 001°23'1110.7
2017-Mar-14 05:33N 50°19' W 001°07'2713.0
2017-Mar-14 03:27N 50°27' W 000°25'1112.3
2017-Mar-14 02:33N 50°30' W 000°09'1211.6
2017-Mar-14 01:30N 50°33' E 000°10'1011.1
2017-Mar-14 00:34N 50°36' E 000°25'10 9.9
2017-Mar-13 23:33N 50°39' E 000°40'10 9.7
2017-Mar-13 22:33N 50°46' E 000°52'1010.2
2017-Mar-13 21:33N 50°52' E 001°04'1212.4
2017-Mar-13 20:33N 51°00' E 001°20'1414.4
2017-Mar-13 19:33N 51°09' E 001°38'1312.9
2017-Mar-13 18:33N 51°19' E 001°51'10 9.9
2017-Mar-13 17:33N 51°24' E 002°05'1110.8
2017-Mar-13 16:33N 51°21' E 002°21'7 6.7
2017-Mar-13 15:33N 51°20' E 002°32'0 0.4
2017-Mar-13 14:33N 51°20' E 002°32'0 0.0
2017-Mar-13 13:33N 51°20' E 002°32'0 0.0
2017-Mar-13 12:33N 51°20' E 002°32'0 0.1
2017-Mar-13 11:33N 51°20' E 002°32'0 0.1
2017-Mar-13 10:33N 51°20' E 002°32'0 0.0
2017-Mar-13 09:30N 51°20' E 002°32'0 0.0
2017-Mar-13 08:33N 51°20' E 002°32'0 0.0
2017-Mar-13 07:33N 51°20' E 002°32'0 0.0
2017-Mar-13 06:33N 51°20' E 002°32'0 0.1
2017-Mar-13 05:33N 51°20' E 002°32'0 0.1
2017-Mar-13 04:33N 51°20' E 002°32'0 0.1
2017-Mar-13 03:33N 51°20' E 002°32'0 0.0
2017-Mar-13 02:33N 51°20' E 002°32'0 0.0
2017-Mar-13 01:33N 51°20' E 002°32'0 0.0
2017-Mar-13 00:33N 51°20' E 002°32'0 0.1
2017-Mar-12 23:33N 51°20' E 002°32'0 0.1
2017-Mar-12 22:33N 51°20' E 002°32'0 0.0
2017-Mar-12 21:33N 51°20' E 002°32'0 0.0
2017-Mar-12 20:33N 51°20' E 002°32'0 0.0
2017-Mar-12 19:33N 51°20' E 002°32'0 0.0
2017-Mar-12 18:33N 51°20' E 002°32'0 0.0
2017-Mar-12 17:33N 51°20' E 002°32'0 0.1
2017-Mar-12 16:33N 51°20' E 002°32'0 0.0
2017-Mar-12 15:33N 51°20' E 002°32'0 0.0
2017-Mar-12 14:33N 51°20' E 002°32'0 0.0
2017-Mar-12 13:33N 51°20' E 002°32'0 0.0
2017-Mar-12 12:33N 51°20' E 002°32'0 0.0
2017-Mar-12 11:33N 51°20' E 002°32'0 0.1
2017-Mar-12 10:33N 51°20' E 002°32'0 0.1
2017-Mar-12 09:33N 51°20' E 002°32'0 0.0
2017-Mar-12 08:33N 51°20' E 002°32'0 0.0
2017-Mar-12 07:33N 51°20' E 002°32'0 0.0
2017-Mar-12 06:33N 51°20' E 002°32'0 0.1
2017-Mar-12 05:33N 51°20' E 002°32'0 0.0
2017-Mar-12 04:33N 51°20' E 002°32'3 3.1
2017-Mar-12 03:33N 51°22' E 002°28'1110.6
2017-Mar-12 02:33N 51°19' E 002°12'8 8.4
2017-Mar-12 01:33N 51°23' E 002°00'6 6.4
2017-Mar-12 00:33N 51°29' E 002°05'8 8.0
2017-Mar-11 23:34N 51°35' E 002°13'9 8.9
2017-Mar-11 22:33N 51°41' E 002°23'1010.4
2017-Mar-11 21:33N 51°49' E 002°34'10 8.9
2017-Mar-11 20:24N 51°59' E 002°32'910.0
2017-Mar-11 19:33N 52°08' E 002°32'171 8.4
2017-Mar-10 23:05N 54°40' E 000°18'5 9.7
2017-Mar-10 22:33N 54°41' E 000°10'10 9.5
2017-Mar-10 21:33N 54°44' W 000°06'9 9.5
2017-Mar-10 20:33N 54°48' W 000°21'29 9.7
2017-Mar-10 17:33N 54°57' W 001°09'9 9.5
2017-Mar-10 16:33N 55°01' W 001°25'2 1.1
2017-Mar-10 14:22N 54°59' W 001°28'0 0.0
2017-Mar-10 12:13N 54°59' W 001°28'0 0.0
2017-Mar-10 06:13N 54°59' W 001°28'0 0.0
2017-Mar-10 05:25N 54°59' W 001°28'2 1.7
2017-Mar-10 04:30N 55°00' W 001°26'8 8.4
2017-Mar-10 03:33N 55°06' W 001°15'10 9.9
2017-Mar-10 02:33N 55°14' W 001°05'9 8.7
2017-Mar-10 01:33N 55°22' W 001°07'1010.4
2017-Mar-10 00:33N 55°32' W 001°14'1010.2
2017-Mar-09 23:33N 55°40' W 001°26'1010.3
2017-Mar-09 22:33N 55°47' W 001°38'10 9.7
2017-Mar-09 21:33N 55°55' W 001°47'10 9.5
2017-Mar-09 20:29N 56°05' W 001°54'9 9.1
2017-Mar-09 19:33N 56°08' W 002°08'1010.2
2017-Mar-09 18:33N 56°07' W 002°27'1110.7
2017-Mar-09 17:33N 56°06' W 002°46'9 8.7
2017-Mar-09 16:33N 56°02' W 002°60'0 0.1
2017-Mar-09 15:33N 56°02' W 002°60'0 0.0
2017-Mar-09 14:33N 56°02' W 002°60'0 0.0
2017-Mar-09 13:33N 56°02' W 002°60'0 0.0
2017-Mar-09 12:33N 56°02' W 002°60'0 0.0
2017-Mar-09 11:30N 56°02' W 002°60'0 0.1
2017-Mar-09 10:33N 56°02' W 002°60'0 0.0
2017-Mar-09 09:33N 56°02' W 002°60'0 0.0
2017-Mar-09 08:33N 56°02' W 002°60'0 0.1
2017-Mar-09 07:33N 56°02' W 002°60'0 0.0
2017-Mar-09 06:33N 56°02' W 002°60'0 0.0
2017-Mar-09 05:33N 56°02' W 002°60'0 0.0
2017-Mar-09 04:33N 56°02' W 002°60'0 0.0
2017-Mar-09 03:33N 56°02' W 002°60'0 0.0
2017-Mar-09 02:33N 56°02' W 002°60'0 0.0
2017-Mar-09 01:33N 56°02' W 002°60'0 0.0
2017-Mar-09 00:33N 56°02' W 002°60'0 0.0
2017-Mar-08 23:33N 56°02' W 002°60'0 0.0
2017-Mar-08 22:33N 56°02' W 002°60'0 0.0
2017-Mar-08 21:33N 56°02' W 002°60'0 0.0
2017-Mar-08 20:33N 56°02' W 002°60'0 0.0
2017-Mar-08 19:33N 56°02' W 002°60'0 0.0
2017-Mar-08 18:33N 56°02' W 002°60'0 0.0
2017-Mar-08 17:33N 56°02' W 002°60'0 0.0
2017-Mar-08 16:33N 56°02' W 002°60'0 0.0
2017-Mar-08 15:33N 56°02' W 002°60'0 0.0
2017-Mar-08 14:33N 56°02' W 002°60'0 0.0
2017-Mar-08 13:33N 56°02' W 002°60'0 0.0
2017-Mar-08 12:33N 56°02' W 002°60'0 0.0
2017-Mar-08 11:33N 56°02' W 002°60'0 0.5
2017-Mar-08 10:33N 56°02' W 003°00'0 0.0
2017-Mar-08 09:33N 56°02' W 003°00'0 0.0
2017-Mar-08 08:33N 56°02' W 003°00'0 0.0
2017-Mar-08 07:33N 56°02' W 003°00'0 0.1
2017-Mar-08 06:33N 56°02' W 003°00'0 0.1
2017-Mar-08 05:33N 56°02' W 003°01'0 0.0
2017-Mar-08 04:33N 56°02' W 003°01'0 0.0
2017-Mar-08 03:33N 56°02' W 003°01'0 0.0
2017-Mar-08 02:33N 56°02' W 003°01'0 0.0
2017-Mar-08 01:33N 56°02' W 003°01'0 0.0
2017-Mar-08 00:33N 56°02' W 003°01'0 0.0
2017-Mar-07 23:33N 56°02' W 003°01'0 0.0
2017-Mar-07 22:33N 56°02' W 003°01'0 0.0
2017-Mar-07 21:32N 56°02' W 003°01'0 0.0
2017-Mar-07 20:32N 56°02' W 003°01'0 0.1
2017-Mar-07 19:32N 56°02' W 003°01'0 0.0
2017-Mar-07 18:32N 56°02' W 003°01'0 0.0
2017-Mar-07 17:32N 56°02' W 003°01'0 0.1
2017-Mar-07 16:32N 56°02' W 003°01'0 0.0
2017-Mar-07 15:32N 56°02' W 003°01'0 0.0
2017-Mar-07 14:32N 56°02' W 003°01'0 0.0
2017-Mar-07 13:29N 56°02' W 003°01'0 0.0
2017-Mar-07 12:33N 56°02' W 003°01'0 0.0
2017-Mar-07 11:33N 56°02' W 003°01'0 0.1
2017-Mar-07 10:33N 56°02' W 003°01'0 0.1
2017-Mar-07 09:33N 56°02' W 003°01'0 0.0
2017-Mar-07 08:33N 56°02' W 003°01'0 0.0
2017-Mar-07 07:33N 56°02' W 003°01'0 0.1
2017-Mar-07 06:33N 56°02' W 003°01'0 0.0
2017-Mar-07 05:33N 56°02' W 003°01'0 0.0
2017-Mar-07 04:33N 56°02' W 003°01'0 0.0
2017-Mar-07 03:33N 56°02' W 003°01'0 0.0
2017-Mar-07 02:33N 56°02' W 003°01'0 0.0
2017-Mar-07 01:33N 56°02' W 003°01'0 0.0
2017-Mar-07 00:33N 56°02' W 003°01'0 0.0
2017-Mar-06 23:33N 56°02' W 003°01'0 0.0
2017-Mar-06 22:33N 56°02' W 003°01'0 0.1
2017-Mar-06 21:33N 56°02' W 003°01'0 0.1
2017-Mar-06 20:33N 56°02' W 003°01'0 0.0
2017-Mar-06 19:33N 56°02' W 003°01'0 0.0
2017-Mar-06 18:33N 56°02' W 003°01'4 3.7
2017-Mar-06 17:33N 56°04' W 002°56'1111.3
2017-Mar-06 16:33N 56°06' W 002°36'1111.0
2017-Mar-06 15:33N 56°10' W 002°17'1110.9
2017-Mar-06 14:33N 56°12' W 001°58'1110.7
2017-Mar-06 13:33N 56°14' W 001°39'316 8.5
2017-Mar-05 00:16N 51°29' E 002°13'710.0
2017-Mar-04 23:33N 51°23' E 002°07'1010.1
2017-Mar-04 22:33N 51°22' E 002°23'1211.7
2017-Mar-04 21:33N 51°22' E 002°42'1211.6
2017-Mar-04 20:33N 51°24' E 003°01'1312.9
2017-Mar-04 19:33N 51°25' E 003°21'1111.4
2017-Mar-04 18:33N 51°25' E 003°40'1010.1
2017-Mar-04 17:33N 51°22' E 003°55'5 4.6
2017-Mar-04 16:33N 51°23' E 004°02'8 8.0
2017-Mar-04 15:33N 51°21' E 004°15'  
Track history (hours):
 
Tides and Currents Weather Stations Pressure Air Temp Water Temp Dewpoint Dewpoint Depression Visibility Wind Speed Wind Dir Waves Ship Positions

BBC Polonia

Last reported at 2017-Mar-14 15:27 UTC. Time now 2017-Mar-26 20:56 UTC.
Position N 49°49' W 003°26'.
Warning: this ship's position is 12 days out of date.

Length 123 m; draft 6.2 m.

Type: Cargo ship. MMSI: 305614000.

Date/timePositionNaut miles runAvg speedWind from/ knotsBaromVisibWave heightAir tempDewpointWater temp
2017-Mar-14 15:27N 49°49' W 003°26'1212.2
2017-Mar-14 14:29N 49°55' W 003°10'1212.4
2017-Mar-14 13:33N 49°60' W 002°54'2411.1
2017-Mar-14 11:24N 50°06' W 002°18'15 7.9
2017-Mar-14 09:31N 50°10' W 001°55'6 6.6
2017-Mar-14 08:33N 50°11' W 001°46'7 7.1
2017-Mar-14 07:33N 50°13' W 001°35'9 8.5
2017-Mar-14 06:33N 50°16' W 001°23'1110.7
2017-Mar-14 05:33N 50°19' W 001°07'2713.0
2017-Mar-14 03:27N 50°27' W 000°25'1112.3
2017-Mar-14 02:33N 50°30' W 000°09'1211.6
2017-Mar-14 01:30N 50°33' E 000°10'1011.1
2017-Mar-14 00:34N 50°36' E 000°25'10 9.9
2017-Mar-13 23:33N 50°39' E 000°40'10 9.7
2017-Mar-13 22:33N 50°46' E 000°52'1010.2
2017-Mar-13 21:33N 50°52' E 001°04'1212.4
2017-Mar-13 20:33N 51°00' E 001°20'1414.4
2017-Mar-13 19:33N 51°09' E 001°38'1312.9
2017-Mar-13 18:33N 51°19' E 001°51'10 9.9
2017-Mar-13 17:33N 51°24' E 002°05'1110.8
2017-Mar-13 16:33N 51°21' E 002°21'7 6.7
2017-Mar-13 15:33N 51°20' E 002°32'0 0.4
2017-Mar-13 14:33N 51°20' E 002°32'0 0.0
2017-Mar-13 13:33N 51°20' E 002°32'0 0.0
2017-Mar-13 12:33N 51°20' E 002°32'0 0.1
2017-Mar-13 11:33N 51°20' E 002°32'0 0.1
2017-Mar-13 10:33N 51°20' E 002°32'0 0.0
2017-Mar-13 09:30N 51°20' E 002°32'0 0.0
2017-Mar-13 08:33N 51°20' E 002°32'0 0.0
2017-Mar-13 07:33N 51°20' E 002°32'0 0.0
2017-Mar-13 06:33N 51°20' E 002°32'0 0.1
2017-Mar-13 05:33N 51°20' E 002°32'0 0.1
2017-Mar-13 04:33N 51°20' E 002°32'0 0.1
2017-Mar-13 03:33N 51°20' E 002°32'0 0.0
2017-Mar-13 02:33N 51°20' E 002°32'0 0.0
2017-Mar-13 01:33N 51°20' E 002°32'0 0.0
2017-Mar-13 00:33N 51°20' E 002°32'0 0.1
2017-Mar-12 23:33N 51°20' E 002°32'0 0.1
2017-Mar-12 22:33N 51°20' E 002°32'0 0.0
2017-Mar-12 21:33N 51°20' E 002°32'0 0.0
2017-Mar-12 20:33N 51°20' E 002°32'0 0.0
2017-Mar-12 19:33N 51°20' E 002°32'0 0.0
2017-Mar-12 18:33N 51°20' E 002°32'0 0.0
2017-Mar-12 17:33N 51°20' E 002°32'0 0.1
2017-Mar-12 16:33N 51°20' E 002°32'0 0.0
2017-Mar-12 15:33N 51°20' E 002°32'0 0.0
2017-Mar-12 14:33N 51°20' E 002°32'0 0.0
2017-Mar-12 13:33N 51°20' E 002°32'0 0.0
2017-Mar-12 12:33N 51°20' E 002°32'0 0.0
2017-Mar-12 11:33N 51°20' E 002°32'0 0.1
2017-Mar-12 10:33N 51°20' E 002°32'0 0.1
2017-Mar-12 09:33N 51°20' E 002°32'0 0.0
2017-Mar-12 08:33N 51°20' E 002°32'0 0.0
2017-Mar-12 07:33N 51°20' E 002°32'0 0.0
2017-Mar-12 06:33N 51°20' E 002°32'0 0.1
2017-Mar-12 05:33N 51°20' E 002°32'0 0.0
2017-Mar-12 04:33N 51°20' E 002°32'3 3.1
2017-Mar-12 03:33N 51°22' E 002°28'1110.6
2017-Mar-12 02:33N 51°19' E 002°12'8 8.4
2017-Mar-12 01:33N 51°23' E 002°00'6 6.4
2017-Mar-12 00:33N 51°29' E 002°05'8 8.0
2017-Mar-11 23:34N 51°35' E 002°13'9 8.9
2017-Mar-11 22:33N 51°41' E 002°23'1010.4
2017-Mar-11 21:33N 51°49' E 002°34'10 8.9
2017-Mar-11 20:24N 51°59' E 002°32'910.0
2017-Mar-11 19:33N 52°08' E 002°32'171 8.4
2017-Mar-10 23:05N 54°40' E 000°18'5 9.7
2017-Mar-10 22:33N 54°41' E 000°10'10 9.5
2017-Mar-10 21:33N 54°44' W 000°06'9 9.5
2017-Mar-10 20:33N 54°48' W 000°21'29 9.7
2017-Mar-10 17:33N 54°57' W 001°09'9 9.5
2017-Mar-10 16:33N 55°01' W 001°25'2 1.1
2017-Mar-10 14:22N 54°59' W 001°28'0 0.0
2017-Mar-10 12:13N 54°59' W 001°28'0 0.0
2017-Mar-10 06:13N 54°59' W 001°28'0 0.0
2017-Mar-10 05:25N 54°59' W 001°28'2 1.7
2017-Mar-10 04:30N 55°00' W 001°26'8 8.4
2017-Mar-10 03:33N 55°06' W 001°15'10 9.9
2017-Mar-10 02:33N 55°14' W 001°05'9 8.7
2017-Mar-10 01:33N 55°22' W 001°07'1010.4
2017-Mar-10 00:33N 55°32' W 001°14'1010.2
2017-Mar-09 23:33N 55°40' W 001°26'1010.3
2017-Mar-09 22:33N 55°47' W 001°38'10 9.7
2017-Mar-09 21:33N 55°55' W 001°47'10 9.5
2017-Mar-09 20:29N 56°05' W 001°54'9 9.1
2017-Mar-09 19:33N 56°08' W 002°08'1010.2
2017-Mar-09 18:33N 56°07' W 002°27'1110.7
2017-Mar-09 17:33N 56°06' W 002°46'9 8.7
2017-Mar-09 16:33N 56°02' W 002°60'0 0.1
2017-Mar-09 15:33N 56°02' W 002°60'0 0.0
2017-Mar-09 14:33N 56°02' W 002°60'0 0.0
2017-Mar-09 13:33N 56°02' W 002°60'0 0.0
2017-Mar-09 12:33N 56°02' W 002°60'0 0.0
2017-Mar-09 11:30N 56°02' W 002°60'0 0.1
2017-Mar-09 10:33N 56°02' W 002°60'0 0.0
2017-Mar-09 09:33N 56°02' W 002°60'0 0.0
2017-Mar-09 08:33N 56°02' W 002°60'0 0.1
2017-Mar-09 07:33N 56°02' W 002°60'0 0.0
2017-Mar-09 06:33N 56°02' W 002°60'0 0.0
2017-Mar-09 05:33N 56°02' W 002°60'0 0.0
2017-Mar-09 04:33N 56°02' W 002°60'0 0.0
2017-Mar-09 03:33N 56°02' W 002°60'0 0.0
2017-Mar-09 02:33N 56°02' W 002°60'0 0.0
2017-Mar-09 01:33N 56°02' W 002°60'0 0.0
2017-Mar-09 00:33N 56°02' W 002°60'0 0.0
2017-Mar-08 23:33N 56°02' W 002°60'0 0.0
2017-Mar-08 22:33N 56°02' W 002°60'0 0.0
2017-Mar-08 21:33N 56°02' W 002°60'0 0.0
2017-Mar-08 20:33N 56°02' W 002°60'0 0.0
2017-Mar-08 19:33N 56°02' W 002°60'0 0.0
2017-Mar-08 18:33N 56°02' W 002°60'0 0.0
2017-Mar-08 17:33N 56°02' W 002°60'0 0.0
2017-Mar-08 16:33N 56°02' W 002°60'0 0.0
2017-Mar-08 15:33N 56°02' W 002°60'0 0.0
2017-Mar-08 14:33N 56°02' W 002°60'0 0.0
2017-Mar-08 13:33N 56°02' W 002°60'0 0.0
2017-Mar-08 12:33N 56°02' W 002°60'0 0.0
2017-Mar-08 11:33N 56°02' W 002°60'0 0.5
2017-Mar-08 10:33N 56°02' W 003°00'0 0.0
2017-Mar-08 09:33N 56°02' W 003°00'0 0.0
2017-Mar-08 08:33N 56°02' W 003°00'0 0.0
2017-Mar-08 07:33N 56°02' W 003°00'0 0.1
2017-Mar-08 06:33N 56°02' W 003°00'0 0.1
2017-Mar-08 05:33N 56°02' W 003°01'0 0.0
2017-Mar-08 04:33N 56°02' W 003°01'0 0.0
2017-Mar-08 03:33N 56°02' W 003°01'0 0.0
2017-Mar-08 02:33N 56°02' W 003°01'0 0.0
2017-Mar-08 01:33N 56°02' W 003°01'0 0.0
2017-Mar-08 00:33N 56°02' W 003°01'0 0.0
2017-Mar-07 23:33N 56°02' W 003°01'0 0.0
2017-Mar-07 22:33N 56°02' W 003°01'0 0.0
2017-Mar-07 21:32N 56°02' W 003°01'0 0.0
2017-Mar-07 20:32N 56°02' W 003°01'0 0.1
2017-Mar-07 19:32N 56°02' W 003°01'0 0.0
2017-Mar-07 18:32N 56°02' W 003°01'0 0.0
2017-Mar-07 17:32N 56°02' W 003°01'0 0.1
2017-Mar-07 16:32N 56°02' W 003°01'0 0.0
2017-Mar-07 15:32N 56°02' W 003°01'0 0.0
2017-Mar-07 14:32N 56°02' W 003°01'0 0.0
2017-Mar-07 13:29N 56°02' W 003°01'0 0.0
2017-Mar-07 12:33N 56°02' W 003°01'0 0.0
2017-Mar-07 11:33N 56°02' W 003°01'0 0.1
2017-Mar-07 10:33N 56°02' W 003°01'0 0.1
2017-Mar-07 09:33N 56°02' W 003°01'0 0.0
2017-Mar-07 08:33N 56°02' W 003°01'0 0.0
2017-Mar-07 07:33N 56°02' W 003°01'0 0.1
2017-Mar-07 06:33N 56°02' W 003°01'0 0.0
2017-Mar-07 05:33N 56°02' W 003°01'0 0.0
2017-Mar-07 04:33N 56°02' W 003°01'0 0.0
2017-Mar-07 03:33N 56°02' W 003°01'0 0.0
2017-Mar-07 02:33N 56°02' W 003°01'0 0.0
2017-Mar-07 01:33N 56°02' W 003°01'0 0.0
2017-Mar-07 00:33N 56°02' W 003°01'0 0.0
2017-Mar-06 23:33N 56°02' W 003°01'0 0.0
2017-Mar-06 22:33N 56°02' W 003°01'0 0.1
2017-Mar-06 21:33N 56°02' W 003°01'0 0.1
2017-Mar-06 20:33N 56°02' W 003°01'0 0.0
2017-Mar-06 19:33N 56°02' W 003°01'0 0.0
2017-Mar-06 18:33N 56°02' W 003°01'4 3.7
2017-Mar-06 17:33N 56°04' W 002°56'1111.3
2017-Mar-06 16:33N 56°06' W 002°36'1111.0
2017-Mar-06 15:33N 56°10' W 002°17'1110.9
2017-Mar-06 14:33N 56°12' W 001°58'1110.7
2017-Mar-06 13:33N 56°14' W 001°39'316 8.5
2017-Mar-05 00:16N 51°29' E 002°13'710.0
2017-Mar-04 23:33N 51°23' E 002°07'1010.1
2017-Mar-04 22:33N 51°22' E 002°23'1211.7
2017-Mar-04 21:33N 51°22' E 002°42'1211.6
2017-Mar-04 20:33N 51°24' E 003°01'1312.9
2017-Mar-04 19:33N 51°25' E 003°21'1111.4
2017-Mar-04 18:33N 51°25' E 003°40'1010.1
2017-Mar-04 17:33N 51°22' E 003°55'5 4.6
2017-Mar-04 16:33N 51°23' E 004°02'8 8.0
2017-Mar-04 15:33N 51°21' E 004°15'  

Dump ship's entire track history